Terminal Aerodrome Forecast
Issued by NWS Detroit/Pontiac, MI

Home | Current Version | Previous Version | Text Only | Print | Product List | Glossary On
Versions: 1 2 3 4 5 6 7 8 9 10 11 12 13 14 15 16 17 18 19 20 21 22 23 24 25 26 27
000
FTUS43 KDTX 250943 AAC
TAFDTW
TAF AMD
KDTW 250943Z 2510/2612 23007KT P6SM SCT007 BKN035
      TEMPO 2510/2512 3SM BR OVC006
     FM251200 22003KT P6SM SCT020
     FM251400 24010KT P6SM BKN040 OVC100
      TEMPO 2515/2519 4SM -SHRA BR OVC030
     FM251900 24013G20KT P6SM BKN040 PROB30 2519/2522 2SM TSRA
      OVC025CB
     FM260100 28010KT P6SM SCT250=

USA.gov is the U.S. government's official web portal to all federal, state and local government web resources and services.